createdAt,value
2023-02-13T00:00:19.972Z,34.12
2023-02-13T00:02:47.159Z,34.31
2023-02-13T00:05:13.912Z,34.21
2023-02-13T00:07:40.737Z,34.34
2023-02-13T00:10:08.344Z,34.46
2023-02-13T00:12:34.980Z,33.99
2023-02-13T00:15:01.741Z,34.12
2023-02-13T00:17:28.362Z,34.06
2023-02-13T00:19:54.965Z,34.06
2023-02-13T00:22:21.611Z,34.41
2023-02-13T00:24:48.227Z,33.77
2023-02-13T00:27:14.826Z,34.16
2023-02-13T00:29:41.555Z,34.05
2023-02-13T00:32:08.371Z,34.04
2023-02-13T00:34:35.096Z,33.72
2023-02-13T00:37:01.692Z,33.93
2023-02-13T00:39:28.411Z,33.97
2023-02-13T00:41:54.983Z,34.21
2023-02-13T00:44:21.575Z,33.91
2023-02-13T00:46:48.233Z,34.27
2023-02-13T00:49:14.925Z,34.47
2023-02-13T00:51:41.665Z,34.13
2023-02-13T00:54:08.248Z,33.84
2023-02-13T00:56:34.846Z,33.72
2023-02-13T00:59:01.496Z,34.31
2023-02-13T01:01:28.385Z,33.84
2023-02-13T01:03:55.010Z,34.13
2023-02-13T01:06:21.685Z,33.90
2023-02-13T01:08:48.263Z,34.00
2023-02-13T01:11:14.860Z,33.82
2023-02-13T01:13:41.459Z,33.71
2023-02-13T01:16:08.178Z,33.78
2023-02-13T01:18:34.815Z,33.79
2023-02-13T01:21:05.188Z,34.22
2023-02-13T01:23:35.107Z,34.21
2023-02-13T01:26:04.846Z,34.22
2023-02-13T01:28:31.712Z,34.31
2023-02-13T01:30:59.366Z,34.40
2023-02-13T01:33:27.964Z,34.30
2023-02-13T01:35:54.825Z,33.91
2023-02-13T01:38:21.743Z,34.54
2023-02-13T01:40:50.726Z,34.16
2023-02-13T01:43:17.998Z,33.95
2023-02-13T01:45:48.639Z,33.88
2023-02-13T01:48:33.016Z,33.74
2023-02-13T01:51:05.142Z,34.46
2023-02-13T01:53:49.625Z,34.32
2023-02-13T01:56:39.947Z,33.84
2023-02-13T01:59:12.296Z,34.12
2023-02-13T02:01:39.582Z,34.46
2023-02-13T02:04:13.710Z,34.14
2023-02-13T02:06:44.663Z,34.50
2023-02-13T02:09:16.073Z,34.46
2023-02-13T02:11:47.181Z,34.42
2023-02-13T02:14:13.759Z,34.07
2023-02-13T02:16:40.354Z,34.37
2023-02-13T02:19:16.005Z,34.32
2023-02-13T02:22:01.545Z,34.18
2023-02-13T02:24:53.980Z,34.41
2023-02-13T02:27:59.519Z,34.32
2023-02-13T02:30:47.775Z,34.09
2023-02-13T02:33:33.286Z,33.90
2023-02-13T02:36:17.337Z,34.23
2023-02-13T02:39:11.056Z,33.99
2023-02-13T02:41:56.296Z,33.76
2023-02-13T02:44:35.635Z,34.02
2023-02-13T02:47:28.647Z,33.44
2023-02-13T02:50:26.868Z,33.79
2023-02-13T02:53:17.546Z,34.16
2023-02-13T02:55:56.283Z,34.24
2023-02-13T02:58:49.251Z,34.48
2023-02-13T03:01:39.924Z,34.00
2023-02-13T03:04:29.407Z,34.25
2023-02-13T03:07:03.875Z,34.16
2023-02-13T03:09:54.728Z,34.26
2023-02-13T03:12:42.484Z,34.26
2023-02-13T03:15:10.216Z,34.37
2023-02-13T03:17:56.074Z,34.34
2023-02-13T03:20:57.248Z,34.12
2023-02-13T03:23:30.585Z,34.33
2023-02-13T03:26:03.647Z,33.94
2023-02-13T03:28:59.415Z,33.75
2023-02-13T03:31:49.580Z,33.89
2023-02-13T03:34:22.412Z,33.71
2023-02-13T03:37:25.807Z,33.29
2023-02-13T03:40:16.012Z,33.39
2023-02-13T03:42:48.743Z,33.38
2023-02-13T03:45:40.229Z,33.49
2023-02-13T03:48:32.093Z,32.74
2023-02-13T03:51:00.945Z,32.80
2023-02-13T03:53:30.407Z,32.84
2023-02-13T03:56:17.549Z,32.84
2023-02-13T03:59:09.089Z,32.47
2023-02-13T04:01:37.271Z,32.70
2023-02-13T04:04:27.171Z,33.26
2023-02-13T04:07:04.715Z,32.89
2023-02-13T04:09:33.934Z,32.52
2023-02-13T04:12:19.332Z,32.34
2023-02-13T04:14:48.613Z,33.01
2023-02-13T04:17:27.059Z,32.54
2023-02-13T04:19:53.688Z,32.82
2023-02-13T04:22:20.248Z,32.92
2023-02-13T04:24:47.263Z,33.18
2023-02-13T04:27:16.675Z,32.78
2023-02-13T04:29:43.526Z,32.72
2023-02-13T04:32:14.258Z,32.34
2023-02-13T04:34:40.820Z,32.76
2023-02-13T04:37:07.437Z,33.14
2023-02-13T04:39:35.018Z,32.56
2023-02-13T04:42:01.599Z,32.30
2023-02-13T04:44:28.255Z,32.86
2023-02-13T04:46:54.830Z,32.75
2023-02-13T04:49:21.597Z,32.61
2023-02-13T04:51:48.267Z,32.88
2023-02-13T04:54:14.960Z,32.96
2023-02-13T04:56:41.559Z,32.88
2023-02-13T04:59:08.192Z,32.23
2023-02-13T05:01:34.866Z,32.36
2023-02-13T05:04:01.535Z,32.59
2023-02-13T05:06:28.152Z,32.55
2023-02-13T05:08:54.788Z,32.92
2023-02-13T05:11:21.368Z,32.25
2023-02-13T05:13:47.914Z,32.75
2023-02-13T05:16:14.585Z,32.49
2023-02-13T05:18:41.221Z,32.21
2023-02-13T05:21:26.361Z,32.78
2023-02-13T05:23:52.941Z,32.31
2023-02-13T05:26:19.652Z,32.42
2023-02-13T05:29:05.065Z,32.28
2023-02-13T05:31:31.771Z,33.14
2023-02-13T05:33:58.395Z,33.33
2023-02-13T05:36:24.976Z,33.64
2023-02-13T05:38:51.552Z,33.49
2023-02-13T05:41:18.183Z,33.97
2023-02-13T05:43:44.778Z,33.45
2023-02-13T05:46:11.654Z,33.47
2023-02-13T05:48:38.311Z,34.19
2023-02-13T05:51:05.213Z,33.85
2023-02-13T05:53:35.216Z,34.13
2023-02-13T05:56:03.486Z,34.04
2023-02-13T05:58:30.233Z,34.66
2023-02-13T06:00:59.252Z,34.67
2023-02-13T06:03:28.152Z,33.99
2023-02-13T06:05:55.677Z,34.39
2023-02-13T06:08:23.213Z,34.08
2023-02-13T06:10:50.557Z,34.09
2023-02-13T06:13:17.646Z,34.12
2023-02-13T06:15:44.469Z,33.92
2023-02-13T06:18:11.537Z,33.93
2023-02-13T06:20:38.622Z,33.81
2023-02-13T06:23:05.377Z,34.12
2023-02-13T06:25:31.954Z,34.24
2023-02-13T06:27:58.544Z,33.89
2023-02-13T06:30:25.196Z,34.11
2023-02-13T06:32:51.876Z,34.14
2023-02-13T06:35:18.685Z,34.29
2023-02-13T06:37:45.650Z,33.88
2023-02-13T06:40:14.193Z,34.45
2023-02-13T06:42:43.001Z,34.04
2023-02-13T06:45:10.488Z,34.29
2023-02-13T06:47:41.594Z,34.01
2023-02-13T06:50:08.684Z,34.06
2023-02-13T06:52:36.035Z,34.05
2023-02-13T06:55:03.183Z,34.56
2023-02-13T06:57:33.077Z,34.43
2023-02-13T07:00:01.033Z,34.54
2023-02-13T07:02:27.748Z,34.99
2023-02-13T07:04:54.331Z,34.34
2023-02-13T07:07:20.925Z,34.98
2023-02-13T07:09:47.499Z,34.13
2023-02-13T07:12:14.110Z,34.75
2023-02-13T07:14:40.885Z,34.51
2023-02-13T07:17:07.558Z,34.94
2023-02-13T07:19:34.258Z,34.84
2023-02-13T07:22:00.892Z,35.33
2023-02-13T07:24:27.507Z,34.89
2023-02-13T07:26:54.108Z,35.01
2023-02-13T07:29:20.760Z,35.52
2023-02-13T07:31:47.377Z,35.02
2023-02-13T07:34:14.055Z,35.27
2023-02-13T07:36:40.634Z,34.74
2023-02-13T07:39:07.304Z,35.60
2023-02-13T07:41:33.904Z,35.25
2023-02-13T07:44:00.548Z,34.99
2023-02-13T07:46:27.153Z,34.78
2023-02-13T07:48:54.094Z,34.99
2023-02-13T07:51:20.785Z,34.82
2023-02-13T07:53:47.342Z,35.04
2023-02-13T07:56:13.921Z,35.02
2023-02-13T07:58:41.033Z,34.57
2023-02-13T08:01:12.378Z,34.69
2023-02-13T08:03:39.397Z,34.58
2023-02-13T08:06:06.891Z,34.96
2023-02-13T08:08:34.033Z,34.63
2023-02-13T08:11:25.600Z,34.82
2023-02-13T08:13:52.255Z,34.87
2023-02-13T08:16:18.926Z,34.47
2023-02-13T08:18:45.548Z,34.62
2023-02-13T08:21:12.190Z,34.55
2023-02-13T08:23:38.802Z,35.08
2023-02-13T08:26:05.421Z,35.02
2023-02-13T08:28:32.128Z,34.75
2023-02-13T08:30:58.779Z,34.67
2023-02-13T08:33:25.533Z,35.00
2023-02-13T08:35:52.105Z,35.26
2023-02-13T08:38:18.684Z,34.83
2023-02-13T08:40:45.251Z,34.63
2023-02-13T08:43:11.877Z,34.77
2023-02-13T08:45:38.582Z,34.84
2023-02-13T08:48:05.296Z,34.99
2023-02-13T08:50:32.306Z,34.71
2023-02-13T08:52:59.597Z,34.57
2023-02-13T08:55:27.478Z,34.88
2023-02-13T08:57:54.056Z,34.96
2023-02-13T09:00:21.146Z,34.90
2023-02-13T09:02:47.764Z,35.28
2023-02-13T09:05:14.461Z,34.68
2023-02-13T09:07:41.040Z,35.16
2023-02-13T09:10:08.025Z,34.74
2023-02-13T09:12:34.677Z,34.83
2023-02-13T09:15:01.340Z,34.68
2023-02-13T09:17:28.021Z,34.36
2023-02-13T09:19:54.613Z,34.90
2023-02-13T09:22:21.172Z,34.59
2023-02-13T09:24:47.749Z,34.63
2023-02-13T09:27:14.360Z,34.63
2023-02-13T09:29:40.982Z,34.71
2023-02-13T09:32:07.668Z,35.00
2023-02-13T09:34:34.430Z,34.66
2023-02-13T09:37:01.007Z,34.61
2023-02-13T09:39:27.597Z,34.87
2023-02-13T09:41:55.508Z,34.40
2023-02-13T09:44:34.419Z,34.94
2023-02-13T09:47:15.590Z,35.11
2023-02-13T09:49:46.977Z,34.83
2023-02-13T09:52:13.665Z,34.47
2023-02-13T09:54:40.281Z,34.56
2023-02-13T09:57:16.847Z,35.01
2023-02-13T10:00:13.133Z,34.38
2023-02-13T10:02:58.259Z,34.42
2023-02-13T10:06:02.047Z,34.57
2023-02-13T10:08:41.684Z,33.91
2023-02-13T10:11:29.735Z,34.00
2023-02-13T10:14:17.838Z,34.31
2023-02-13T10:17:21.871Z,34.93
2023-02-13T10:19:57.239Z,34.66
2023-02-13T10:22:59.907Z,34.59
2023-02-13T10:25:30.139Z,34.88
2023-02-13T10:28:07.331Z,34.87
2023-02-13T10:30:48.515Z,34.33
2023-02-13T10:33:30.070Z,34.64
2023-02-13T10:36:27.435Z,34.65
2023-02-13T10:39:28.744Z,34.82
2023-02-13T10:42:00.052Z,34.54
2023-02-13T10:45:03.502Z,34.89
2023-02-13T10:47:59.177Z,34.70
2023-02-13T10:50:31.595Z,34.92
2023-02-13T10:53:40.341Z,34.69
2023-02-13T10:56:26.995Z,34.84
2023-02-13T10:59:30.884Z,34.47
2023-02-13T11:02:11.657Z,34.51
2023-02-13T11:04:38.267Z,34.60
2023-02-13T11:07:11.558Z,34.39
2023-02-13T11:09:41.579Z,34.55
2023-02-13T11:12:29.967Z,34.02
2023-02-13T11:15:01.101Z,34.27
2023-02-13T11:17:31.679Z,34.27
2023-02-13T11:20:01.525Z,34.00
2023-02-13T11:22:44.062Z,33.94
2023-02-13T11:25:18.300Z,33.78
2023-02-13T11:27:47.258Z,34.00
2023-02-13T11:30:31.016Z,34.55
2023-02-13T11:33:04.359Z,34.38
2023-02-13T11:35:32.278Z,34.44
2023-02-13T11:38:10.657Z,34.57
2023-02-13T11:40:38.284Z,34.31
2023-02-13T11:43:15.843Z,34.37
2023-02-13T11:45:42.408Z,34.21
2023-02-13T11:48:19.823Z,34.69
2023-02-13T11:50:52.484Z,34.75
2023-02-13T11:53:23.603Z,34.59
2023-02-13T11:56:17.790Z,34.43
2023-02-13T11:58:44.543Z,34.55
2023-02-13T12:01:25.357Z,34.65
2023-02-13T12:04:06.634Z,34.43
2023-02-13T12:06:39.802Z,34.33
2023-02-13T12:09:15.364Z,34.44
2023-02-13T12:11:58.290Z,34.42
2023-02-13T12:14:28.753Z,34.55
2023-02-13T12:17:06.362Z,34.36
2023-02-13T12:19:42.362Z,34.59
2023-02-13T12:22:39.966Z,34.35
2023-02-13T12:25:28.799Z,34.32
2023-02-13T12:28:40.406Z,34.55
2023-02-13T12:31:51.547Z,34.40
2023-02-13T12:34:53.755Z,34.23
2023-02-13T12:37:59.962Z,34.26
2023-02-13T12:40:29.310Z,33.99
2023-02-13T12:43:01.864Z,34.38
2023-02-13T12:45:38.459Z,34.62
2023-02-13T12:48:46.040Z,34.53
2023-02-13T12:51:47.925Z,34.59
2023-02-13T12:54:39.494Z,35.33
2023-02-13T12:57:14.381Z,34.76
2023-02-13T12:59:40.932Z,34.40
2023-02-13T13:02:33.567Z,34.74
2023-02-13T13:05:19.639Z,34.53
2023-02-13T13:08:01.210Z,34.38
2023-02-13T13:10:57.314Z,34.18
2023-02-13T13:14:15.073Z,34.87
2023-02-13T13:17:13.697Z,35.01
2023-02-13T13:20:05.124Z,34.75
2023-02-13T13:22:45.057Z,34.45
2023-02-13T13:25:37.680Z,34.46
2023-02-13T13:28:50.866Z,34.14
2023-02-13T13:31:17.821Z,34.54
2023-02-13T13:33:47.187Z,34.78
2023-02-13T13:36:13.691Z,35.00
2023-02-13T13:38:51.879Z,34.38
2023-02-13T13:41:18.427Z,34.58
2023-02-13T13:43:53.756Z,34.70
2023-02-13T13:46:36.640Z,34.67
2023-02-13T13:49:37.115Z,34.55
2023-02-13T13:52:19.368Z,35.03
2023-02-13T13:54:51.490Z,35.00
2023-02-13T13:57:20.065Z,35.19
2023-02-13T13:59:51.490Z,34.76
2023-02-13T14:02:18.134Z,34.53
2023-02-13T14:05:09.749Z,34.68
2023-02-13T14:07:38.891Z,34.62
2023-02-13T14:10:06.399Z,34.87
2023-02-13T14:12:32.989Z,34.64
2023-02-13T14:15:00.578Z,34.93
2023-02-13T14:17:45.105Z,34.49
2023-02-13T14:20:23.106Z,34.47
2023-02-13T14:22:49.755Z,34.51
2023-02-13T14:25:24.888Z,34.55
2023-02-13T14:28:01.355Z,34.72
2023-02-13T14:30:35.647Z,34.65
2023-02-13T14:33:31.447Z,34.71
2023-02-13T14:36:23.104Z,34.74
2023-02-13T14:38:57.670Z,34.64
2023-02-13T14:41:51.696Z,34.92
2023-02-13T14:44:36.454Z,34.69
2023-02-13T14:47:18.257Z,34.56
2023-02-13T14:49:45.914Z,35.17
2023-02-13T14:52:19.281Z,34.66
2023-02-13T14:54:50.357Z,35.10
2023-02-13T14:57:25.419Z,34.98
2023-02-13T15:00:06.692Z,34.49
2023-02-13T15:02:44.633Z,34.69
2023-02-13T15:05:20.188Z,34.77
2023-02-13T15:07:50.662Z,34.88
2023-02-13T15:10:25.883Z,34.93
2023-02-13T15:13:00.895Z,34.81
2023-02-13T15:15:32.606Z,34.91
2023-02-13T15:18:09.605Z,34.52
2023-02-13T15:20:41.074Z,35.24
2023-02-13T15:23:09.540Z,34.84
2023-02-13T15:25:40.211Z,34.67
2023-02-13T15:28:15.306Z,34.70
2023-02-13T15:30:41.892Z,34.48
2023-02-13T15:33:20.763Z,34.94
2023-02-13T15:35:54.116Z,35.13
2023-02-13T15:38:24.783Z,35.57
2023-02-13T15:40:53.676Z,35.92
2023-02-13T15:43:31.148Z,35.19
2023-02-13T15:46:07.004Z,35.33
2023-02-13T15:48:35.326Z,34.72
2023-02-13T15:51:02.950Z,34.75
2023-02-13T15:53:30.460Z,34.95
2023-02-13T15:56:05.880Z,35.06
2023-02-13T15:58:35.010Z,34.75
2023-02-13T16:01:06.595Z,35.16
2023-02-13T16:03:35.293Z,35.29
2023-02-13T16:06:02.995Z,35.18
2023-02-13T16:08:40.631Z,35.59
2023-02-13T16:11:28.302Z,35.70
2023-02-13T16:14:27.355Z,35.03
2023-02-13T16:17:06.096Z,35.39
2023-02-13T16:19:50.993Z,35.63
2023-02-13T16:22:32.751Z,35.23
2023-02-13T16:25:21.564Z,35.05
2023-02-13T16:28:02.505Z,34.87
2023-02-13T16:30:53.945Z,35.63
2023-02-13T16:33:24.257Z,35.71
2023-02-13T16:35:57.036Z,35.31
2023-02-13T16:38:28.620Z,35.54
2023-02-13T16:40:57.825Z,35.39
2023-02-13T16:43:38.057Z,34.79
2023-02-13T16:46:19.785Z,34.80
2023-02-13T16:48:57.147Z,35.22
2023-02-13T16:51:29.583Z,35.00
2023-02-13T16:54:11.427Z,34.57
2023-02-13T16:56:47.986Z,34.65
2023-02-13T16:59:17.486Z,34.87
2023-02-13T17:01:44.328Z,34.30
2023-02-13T17:04:24.941Z,34.69
2023-02-13T17:06:55.691Z,35.29
2023-02-13T17:09:22.769Z,35.01
2023-02-13T17:11:53.371Z,35.22
2023-02-13T17:14:20.567Z,35.42
2023-02-13T17:16:48.564Z,35.44
2023-02-13T17:19:15.400Z,35.60
2023-02-13T17:21:42.422Z,35.80
2023-02-13T17:24:16.874Z,35.74
2023-02-13T17:26:43.931Z,35.40
2023-02-13T17:29:10.583Z,35.13
2023-02-13T17:31:37.569Z,35.28
2023-02-13T17:34:05.317Z,35.34
2023-02-13T17:36:31.949Z,35.36
2023-02-13T17:38:58.519Z,35.39
2023-02-13T17:41:25.120Z,35.35
2023-02-13T17:43:51.709Z,35.59
2023-02-13T17:46:18.506Z,35.10
2023-02-13T17:48:45.129Z,35.46
2023-02-13T17:51:14.879Z,35.30
2023-02-13T17:53:41.447Z,35.74
2023-02-13T17:56:08.030Z,35.08
2023-02-13T17:58:34.641Z,35.43
2023-02-13T18:01:01.641Z,35.43
2023-02-13T18:03:28.922Z,35.29
2023-02-13T18:05:55.600Z,35.26
2023-02-13T18:08:22.363Z,35.51
2023-02-13T18:10:49.154Z,35.65
2023-02-13T18:13:15.771Z,35.46
2023-02-13T18:15:44.492Z,35.25
2023-02-13T18:18:13.181Z,35.27
2023-02-13T18:20:39.796Z,35.42
2023-02-13T18:23:07.144Z,35.35
2023-02-13T18:25:34.227Z,35.44
2023-02-13T18:28:00.979Z,34.85
2023-02-13T18:30:28.106Z,34.71
2023-02-13T18:32:56.632Z,35.21
2023-02-13T18:35:23.301Z,34.98
2023-02-13T18:37:50.337Z,35.34
2023-02-13T18:40:17.814Z,35.44
2023-02-13T18:42:44.626Z,35.55
2023-02-13T18:45:12.211Z,35.80
2023-02-13T18:47:38.880Z,35.89
2023-02-13T18:50:06.114Z,35.65
2023-02-13T18:52:33.667Z,35.35
2023-02-13T18:55:00.318Z,35.79
2023-02-13T18:57:26.928Z,35.68
2023-02-13T18:59:53.519Z,35.11
2023-02-13T19:02:20.162Z,35.22
2023-02-13T19:04:46.785Z,34.95
2023-02-13T19:07:13.384Z,35.60
2023-02-13T19:09:40.432Z,35.06
2023-02-13T19:12:08.143Z,35.91
2023-02-13T19:14:34.951Z,35.27
2023-02-13T19:17:01.543Z,35.50
2023-02-13T19:19:28.299Z,35.34
2023-02-13T19:21:54.927Z,35.46
2023-02-13T19:24:21.587Z,35.15
2023-02-13T19:26:48.202Z,35.58
2023-02-13T19:29:14.808Z,35.85
2023-02-13T19:31:41.606Z,36.20
2023-02-13T19:34:08.296Z,35.89
2023-02-13T19:36:34.984Z,35.92
2023-02-13T19:39:04.179Z,35.74
2023-02-13T19:41:31.194Z,35.92
2023-02-13T19:43:58.496Z,35.75
2023-02-13T19:46:28.121Z,35.79
2023-02-13T19:48:55.113Z,35.84
2023-02-13T19:51:30.135Z,35.73
2023-02-13T19:54:05.165Z,35.90
2023-02-13T19:56:33.708Z,35.87
2023-02-13T19:59:00.275Z,35.54
2023-02-13T20:01:29.656Z,35.37
2023-02-13T20:03:56.763Z,35.68
2023-02-13T20:06:31.351Z,35.90
2023-02-13T20:09:01.769Z,35.74
2023-02-13T20:11:28.758Z,35.80
2023-02-13T20:13:57.427Z,35.20
2023-02-13T20:16:24.134Z,35.36
2023-02-13T20:18:50.942Z,35.84
2023-02-13T20:21:18.699Z,35.42
2023-02-13T20:23:50.467Z,35.33
2023-02-13T20:26:18.069Z,35.61
2023-02-13T20:28:46.642Z,35.42
2023-02-13T20:31:18.906Z,35.66
2023-02-13T20:33:46.449Z,35.77
2023-02-13T20:36:18.553Z,35.72
2023-02-13T20:38:45.585Z,35.28
2023-02-13T20:41:17.936Z,35.76
2023-02-13T20:43:45.166Z,35.91
2023-02-13T20:46:12.687Z,35.33
2023-02-13T20:48:40.293Z,35.33
2023-02-13T20:51:09.760Z,35.77
2023-02-13T20:53:36.334Z,35.42
2023-02-13T20:56:15.066Z,35.75
2023-02-13T20:58:43.383Z,35.42
2023-02-13T21:01:45.610Z,35.62
2023-02-13T21:04:14.685Z,35.41
2023-02-13T21:06:42.147Z,35.10
2023-02-13T21:09:09.732Z,35.48
2023-02-13T21:11:38.804Z,35.39
2023-02-13T21:14:06.047Z,35.72
2023-02-13T21:16:35.609Z,35.40
2023-02-13T21:19:06.747Z,35.71
2023-02-13T21:21:35.702Z,35.24
2023-02-13T21:24:08.311Z,35.34
2023-02-13T21:26:36.006Z,35.21
2023-02-13T21:29:02.918Z,35.16
2023-02-13T21:31:32.949Z,36.04
2023-02-13T21:34:05.415Z,35.46
2023-02-13T21:36:32.941Z,35.33
2023-02-13T21:39:00.720Z,35.16
2023-02-13T21:41:28.133Z,35.46
2023-02-13T21:43:54.884Z,35.33
2023-02-13T21:46:27.598Z,35.33
2023-02-13T21:48:56.602Z,35.77
2023-02-13T21:51:24.610Z,35.21
2023-02-13T21:53:51.915Z,35.21
2023-02-13T21:56:27.935Z,35.36
2023-02-13T21:58:54.704Z,35.37
2023-02-13T22:01:30.388Z,35.21
2023-02-13T22:04:00.983Z,35.60
2023-02-13T22:06:29.356Z,35.67
2023-02-13T22:09:01.548Z,35.70
2023-02-13T22:11:28.290Z,35.30
2023-02-13T22:14:03.016Z,35.13
2023-02-13T22:16:31.162Z,35.45
2023-02-13T22:18:58.096Z,35.66
2023-02-13T22:21:26.436Z,35.29
2023-02-13T22:23:53.461Z,35.12
2023-02-13T22:26:32.257Z,35.52
2023-02-13T22:29:01.633Z,35.25
2023-02-13T22:31:28.905Z,35.34
2023-02-13T22:34:03.278Z,35.19
2023-02-13T22:36:30.940Z,35.65
2023-02-13T22:38:58.238Z,35.43
2023-02-13T22:41:26.175Z,35.50
2023-02-13T22:43:53.539Z,35.09
2023-02-13T22:46:31.799Z,35.80
2023-02-13T22:48:59.517Z,35.11
2023-02-13T22:51:30.344Z,35.21
2023-02-13T22:53:58.066Z,35.27
2023-02-13T22:56:25.952Z,35.29
2023-02-13T22:58:52.636Z,35.79
2023-02-13T23:01:21.454Z,35.81
2023-02-13T23:03:48.307Z,35.29
2023-02-13T23:06:16.261Z,35.54
2023-02-13T23:08:43.515Z,35.17
2023-02-13T23:11:32.308Z,35.04
2023-02-13T23:13:59.427Z,35.21
2023-02-13T23:16:26.969Z,35.12
2023-02-13T23:18:55.901Z,35.50
2023-02-13T23:21:22.950Z,35.81
2023-02-13T23:23:49.682Z,35.80
2023-02-13T23:26:16.371Z,35.58
2023-02-13T23:28:43.332Z,35.19
2023-02-13T23:31:10.514Z,35.71
2023-02-13T23:33:37.170Z,35.14
2023-02-13T23:36:03.941Z,35.63
2023-02-13T23:38:30.664Z,35.28
2023-02-13T23:40:57.666Z,35.59
2023-02-13T23:43:24.493Z,35.48
2023-02-13T23:45:51.114Z,35.43
2023-02-13T23:48:17.669Z,35.38
2023-02-13T23:50:44.258Z,35.52
2023-02-13T23:53:10.847Z,35.39
2023-02-13T23:55:37.454Z,35.73
2023-02-13T23:58:04.027Z,35.48
